Virginia, Nebraska
Current Conditions -  °F | °C
As of 1:55 AM on Friday 24 Oct 2014 (Local Time) from KBIE Reporting Station
Clear Clear  
Wind Chill: 58°   Ceiling: Unl
Heat Index: 58°   Visibility: 7mi
Dew Point: 56°   Wind: 8mph
Humidity: 94%   Direction: 190°S
Pressure: 30.02"   Gusts: NA
Location:  40.25°N, 96.5°W
Report Text: KBIE 240655Z AUTO 19007KT 7SM CLR 15/14 A3002 RMK AO2 T01450135
Loading
Personal Weather Stations






























Interactive Weather Map
Tropical Storm Tracking
New forecast layout! Learn more

10-Day Weather Forecast

Advertisements
Track Severe Weather on mobile